sensor_id;sensor_type;location;lat;lon;timestamp;pressure;altitude;pressure_sealevel;temperature;humidity
79347;BME280;68815;48.810;44.482;2023-04-03T00:00:36;100205;;;7.7;62.6
79347;BME280;68815;48.810;44.482;2023-04-03T00:03:38;100198;;;7.6;62.7
79347;BME280;68815;48.810;44.482;2023-04-03T00:06:39;100201;;;7.5;63.2
79347;BME280;68815;48.810;44.482;2023-04-03T00:09:41;100202;;;7.6;62.5
79347;BME280;68815;48.810;44.482;2023-04-03T00:12:42;100198;;;7.6;62.6
79347;BME280;68815;48.810;44.482;2023-04-03T00:15:43;100193;;;7.7;61.9
79347;BME280;68815;48.810;44.482;2023-04-03T00:18:45;100197;;;7.7;61.7
79347;BME280;68815;48.810;44.482;2023-04-03T00:21:46;100186;;;7.7;61.8
79347;BME280;68815;48.810;44.482;2023-04-03T00:24:47;100189;;;7.6;62
79347;BME280;68815;48.810;44.482;2023-04-03T00:27:49;100189;;;7.6;61.9
79347;BME280;68815;48.810;44.482;2023-04-03T00:30:51;100192;;;7.6;62.6
79347;BME280;68815;48.810;44.482;2023-04-03T00:33:53;100188;;;7.6;62.8
79347;BME280;68815;48.810;44.482;2023-04-03T00:36:54;100188;;;7.6;62.4
79347;BME280;68815;48.810;44.482;2023-04-03T00:39:55;100190;;;7.5;62.4
79347;BME280;68815;48.810;44.482;2023-04-03T00:42:58;100198;;;7.5;62.8
79347;BME280;68815;48.810;44.482;2023-04-03T00:46:00;100201;;;7.4;63.3
79347;BME280;68815;48.810;44.482;2023-04-03T00:49:02;100202;;;7.3;63.5
79347;BME280;68815;48.810;44.482;2023-04-03T00:52:04;100200;;;7.4;62.8
79347;BME280;68815;48.810;44.482;2023-04-03T00:55:08;100200;;;7.4;62.4
79347;BME280;68815;48.810;44.482;2023-04-03T00:58:11;100199;;;7.4;62.6
79347;BME280;68815;48.810;44.482;2023-04-03T01:01:16;100204;;;7.3;63.4
79347;BME280;68815;48.810;44.482;2023-04-03T01:04:26;100206;;;7.3;63.2
79347;BME280;68815;48.810;44.482;2023-04-03T01:07:30;100207;;;7.4;63
79347;BME280;68815;48.810;44.482;2023-04-03T01:10:32;100212;;;7.3;63.7
79347;BME280;68815;48.810;44.482;2023-04-03T01:13:33;100209;;;7.3;63.5
79347;BME280;68815;48.810;44.482;2023-04-03T01:16:35;100209;;;7.3;63.6
79347;BME280;68815;48.810;44.482;2023-04-03T01:19:38;100209;;;7.3;63.7
79347;BME280;68815;48.810;44.482;2023-04-03T01:22:50;100209;;;7;64.3
79347;BME280;68815;48.810;44.482;2023-04-03T01:25:57;100222;;;7.2;63.9
79347;BME280;68815;48.810;44.482;2023-04-03T01:28:59;100219;;;7.2;63.9
79347;BME280;68815;48.810;44.482;2023-04-03T01:32:02;100221;;;7.2;63.7
79347;BME280;68815;48.810;44.482;2023-04-03T01:35:06;100224;;;7.2;62.8
79347;BME280;68815;48.810;44.482;2023-04-03T01:38:08;100225;;;7.2;63.1
79347;BME280;68815;48.810;44.482;2023-04-03T01:41:09;100231;;;7.2;63.1
79347;BME280;68815;48.810;44.482;2023-04-03T01:44:11;100230;;;7.1;63.3
79347;BME280;68815;48.810;44.482;2023-04-03T01:47:13;100227;;;7.1;63.2
79347;BME280;68815;48.810;44.482;2023-04-03T01:50:14;100220;;;7.1;62.6
79347;BME280;68815;48.810;44.482;2023-04-03T01:53:16;100223;;;7;63
79347;BME280;68815;48.810;44.482;2023-04-03T01:56:17;100228;;;7;62.8
79347;BME280;68815;48.810;44.482;2023-04-03T01:59:19;100228;;;7;62.8
79347;BME280;68815;48.810;44.482;2023-04-03T02:02:20;100224;;;6.8;63.6
79347;BME280;68815;48.810;44.482;2023-04-03T02:05:22;100226;;;6.9;63.6
79347;BME280;68815;48.810;44.482;2023-04-03T02:08:23;100225;;;6.7;63.9
79347;BME280;68815;48.810;44.482;2023-04-03T02:11:24;100224;;;6.8;63.8
79347;BME280;68815;48.810;44.482;2023-04-03T02:14:26;100218;;;6.7;64.1
79347;BME280;68815;48.810;44.482;2023-04-03T02:17:43;100225;;;6.6;64.2
79347;BME280;68815;48.810;44.482;2023-04-03T02:20:46;100225;;;6.5;64.8
79347;BME280;68815;48.810;44.482;2023-04-03T02:23:47;100222;;;6.4;64.9
79347;BME280;68815;48.810;44.482;2023-04-03T02:26:49;100222;;;6.4;64.5
79347;BME280;68815;48.810;44.482;2023-04-03T02:29:51;100223;;;6.5;64.6
79347;BME280;68815;48.810;44.482;2023-04-03T02:32:52;100223;;;6.5;64.7
79347;BME280;68815;48.810;44.482;2023-04-03T02:35:54;100226;;;6.7;64.1
79347;BME280;68815;48.810;44.482;2023-04-03T02:38:56;100234;;;6.7;64.3
79347;BME280;68815;48.810;44.482;2023-04-03T02:41:57;100231;;;6.6;64.8
79347;BME280;68815;48.810;44.482;2023-04-03T02:44:58;100228;;;6.5;65
79347;BME280;68815;48.810;44.482;2023-04-03T02:48:00;100234;;;6.6;65.2
79347;BME280;68815;48.810;44.482;2023-04-03T02:51:01;100232;;;6.6;65
79347;BME280;68815;48.810;44.482;2023-04-03T02:54:02;100232;;;6.8;64.4
79347;BME280;68815;48.810;44.482;2023-04-03T02:57:04;100229;;;7;63.9
79347;BME280;68815;48.810;44.482;2023-04-03T03:00:06;100222;;;7.1;63.9
79347;BME280;68815;48.810;44.482;2023-04-03T03:03:08;100217;;;7.1;64.1
79347;BME280;68815;48.810;44.482;2023-04-03T03:06:11;100223;;;7.1;64.6
79347;BME280;68815;48.810;44.482;2023-04-03T03:09:13;100231;;;7.1;64.5
79347;BME280;68815;48.810;44.482;2023-04-03T03:12:15;100235;;;7;64
79347;BME280;68815;48.810;44.482;2023-04-03T03:15:16;100230;;;6.9;64.8
79347;BME280;68815;48.810;44.482;2023-04-03T03:18:21;100230;;;6.9;65.1
79347;BME280;68815;48.810;44.482;2023-04-03T03:21:22;100229;;;7.3;63.8
79347;BME280;68815;48.810;44.482;2023-04-03T03:24:23;100227;;;7.3;63.2
79347;BME280;68815;48.810;44.482;2023-04-03T03:27:25;100236;;;7.4;63.6
79347;BME280;68815;48.810;44.482;2023-04-03T03:30:26;100233;;;7.5;63
79347;BME280;68815;48.810;44.482;2023-04-03T03:33:28;100233;;;7.5;63.1
79347;BME280;68815;48.810;44.482;2023-04-03T03:36:30;100235;;;7.6;62.6
79347;BME280;68815;48.810;44.482;2023-04-03T03:39:31;100238;;;7.7;62.2
79347;BME280;68815;48.810;44.482;2023-04-03T03:42:32;100231;;;7.6;61.7
79347;BME280;68815;48.810;44.482;2023-04-03T03:45:34;100240;;;7.7;62.6
79347;BME280;68815;48.810;44.482;2023-04-03T03:48:35;100245;;;7.5;63
79347;BME280;68815;48.810;44.482;2023-04-03T03:51:37;100251;;;7.8;62.2
79347;BME280;68815;48.810;44.482;2023-04-03T03:54:38;100246;;;7.3;63.1
79347;BME280;68815;48.810;44.482;2023-04-03T03:57:40;100256;;;7.3;62.5
79347;BME280;68815;48.810;44.482;2023-04-03T04:00:41;100259;;;7;63
79347;BME280;68815;48.810;44.482;2023-04-03T04:03:43;100264;;;7;62.8
79347;BME280;68815;48.810;44.482;2023-04-03T04:06:48;100266;;;7;63.4
79347;BME280;68815;48.810;44.482;2023-04-03T04:09:52;100262;;;7.6;61.8
79347;BME280;68815;48.810;44.482;2023-04-03T04:12:54;100260;;;7.5;60.9
79347;BME280;68815;48.810;44.482;2023-04-03T04:15:57;100265;;;7.6;61.6
79347;BME280;68815;48.810;44.482;2023-04-03T04:19:01;100273;;;8;60.4
79347;BME280;68815;48.810;44.482;2023-04-03T04:22:03;100269;;;8.2;59.6
79347;BME280;68815;48.810;44.482;2023-04-03T04:25:04;100272;;;8.4;59.4
79347;BME280;68815;48.810;44.482;2023-04-03T04:28:06;100266;;;8.7;58.6
79347;BME280;68815;48.810;44.482;2023-04-03T04:31:08;100269;;;8.8;58.7
79347;BME280;68815;48.810;44.482;2023-04-03T04:34:09;100271;;;9.2;58.6
79347;BME280;68815;48.810;44.482;2023-04-03T04:37:11;100270;;;9.5;56.6
79347;BME280;68815;48.810;44.482;2023-04-03T04:40:12;100270;;;8.9;58
79347;BME280;68815;48.810;44.482;2023-04-03T04:43:13;100268;;;8.7;59.4
79347;BME280;68815;48.810;44.482;2023-04-03T04:46:15;100272;;;8.9;57.7
79347;BME280;68815;48.810;44.482;2023-04-03T04:49:17;100280;;;8.9;57.5
79347;BME280;68815;48.810;44.482;2023-04-03T04:52:18;100277;;;9.2;57.1
79347;BME280;68815;48.810;44.482;2023-04-03T04:55:20;100286;;;9;57.4
79347;BME280;68815;48.810;44.482;2023-04-03T04:58:21;100282;;;9.2;56.1
79347;BME280;68815;48.810;44.482;2023-04-03T05:01:22;100288;;;9.2;56.8
79347;BME280;68815;48.810;44.482;2023-04-03T05:04:24;100285;;;9.4;56.1
79347;BME280;68815;48.810;44.482;2023-04-03T05:07:26;100280;;;9.3;56
79347;BME280;68815;48.810;44.482;2023-04-03T05:10:27;100282;;;9.6;55.2
79347;BME280;68815;48.810;44.482;2023-04-03T05:13:28;100285;;;9.4;55.1
79347;BME280;68815;48.810;44.482;2023-04-03T05:16:30;100282;;;9.2;56.2
79347;BME280;68815;48.810;44.482;2023-04-03T05:19:31;100289;;;8.9;54.6
79347;BME280;68815;48.810;44.482;2023-04-03T05:22:33;100292;;;9.1;54.7
79347;BME280;68815;48.810;44.482;2023-04-03T05:25:37;100298;;;9.4;53.6
79347;BME280;68815;48.810;44.482;2023-04-03T05:28:38;100293;;;9.7;53.2
79347;BME280;68815;48.810;44.482;2023-04-03T05:31:39;100300;;;10.1;52
79347;BME280;68815;48.810;44.482;2023-04-03T05:34:41;100292;;;9.8;52.3
79347;BME280;68815;48.810;44.482;2023-04-03T05:37:43;100300;;;9.8;53.4
79347;BME280;68815;48.810;44.482;2023-04-03T05:40:44;100300;;;9.9;52.8
79347;BME280;68815;48.810;44.482;2023-04-03T05:43:46;100304;;;10;52.1
79347;BME280;68815;48.810;44.482;2023-04-03T05:46:47;100302;;;10.8;51.5
79347;BME280;68815;48.810;44.482;2023-04-03T05:49:49;100310;;;11.2;49.8
79347;BME280;68815;48.810;44.482;2023-04-03T05:52:52;100313;;;11.1;49.4
79347;BME280;68815;48.810;44.482;2023-04-03T05:55:55;100301;;;12;49.5
79347;BME280;68815;48.810;44.482;2023-04-03T05:58:57;100303;;;12.9;48.7
79347;BME280;68815;48.810;44.482;2023-04-03T06:01:58;100306;;;12.1;47.1
79347;BME280;68815;48.810;44.482;2023-04-03T06:04:59;100309;;;12.1;46.5
79347;BME280;68815;48.810;44.482;2023-04-03T06:08:01;100309;;;12.9;45.1
79347;BME280;68815;48.810;44.482;2023-04-03T06:14:34;100307;;;13.6;43.6
79347;BME280;68815;48.810;44.482;2023-04-03T06:17:36;100306;;;13.7;42.1
79347;BME280;68815;48.810;44.482;2023-04-03T06:20:37;100305;;;14.1;41.7
79347;BME280;68815;48.810;44.482;2023-04-03T06:23:38;100313;;;14;40.3
79347;BME280;68815;48.810;44.482;2023-04-03T06:26:40;100307;;;14.6;40
79347;BME280;68815;48.810;44.482;2023-04-03T06:33:13;100308;;;14.1;38.4
79347;BME280;68815;48.810;44.482;2023-04-03T06:36:15;100303;;;14.2;37.4
79347;BME280;68815;48.810;44.482;2023-04-03T06:39:19;100300;;;14.8;37.2
79347;BME280;68815;48.810;44.482;2023-04-03T06:42:21;100300;;;15;37.5
79347;BME280;68815;48.810;44.482;2023-04-03T06:45:22;100294;;;14.7;36.7
79347;BME280;68815;48.810;44.482;2023-04-03T06:48:23;100293;;;14.1;38.1
79347;BME280;68815;48.810;44.482;2023-04-03T06:51:26;100283;;;14.3;39.3
79347;BME280;68815;48.810;44.482;2023-04-03T06:54:28;100291;;;14.4;39
79347;BME280;68815;48.810;44.482;2023-04-03T06:57:29;100280;;;14.3;38.4
79347;BME280;68815;48.810;44.482;2023-04-03T07:00:31;100281;;;14.4;37.9
79347;BME280;68815;48.810;44.482;2023-04-03T07:03:32;100282;;;15;36.7
79347;BME280;68815;48.810;44.482;2023-04-03T07:06:34;100289;;;15.2;36.2
79347;BME280;68815;48.810;44.482;2023-04-03T07:09:35;100293;;;15.8;34.7
79347;BME280;68815;48.810;44.482;2023-04-03T07:12:36;100293;;;15.1;34.5
79347;BME280;68815;48.810;44.482;2023-04-03T07:15:38;100284;;;14.4;34
79347;BME280;68815;48.810;44.482;2023-04-03T07:18:39;100286;;;13.9;35.4
79347;BME280;68815;48.810;44.482;2023-04-03T07:21:41;100290;;;14.9;34
79347;BME280;68815;48.810;44.482;2023-04-03T07:24:42;100291;;;15.4;33.8
79347;BME280;68815;48.810;44.482;2023-04-03T07:27:43;100295;;;14.7;32.9
79347;BME280;68815;48.810;44.482;2023-04-03T07:30:46;100298;;;14.4;33
79347;BME280;68815;48.810;44.482;2023-04-03T07:33:48;100293;;;14.2;33.3
79347;BME280;68815;48.810;44.482;2023-04-03T07:36:50;100286;;;14.1;34
79347;BME280;68815;48.810;44.482;2023-04-03T07:39:51;100293;;;14.5;32.5
79347;BME280;68815;48.810;44.482;2023-04-03T07:42:53;100297;;;14.8;32.5
79347;BME280;68815;48.810;44.482;2023-04-03T07:45:54;100291;;;14.8;32.2
79347;BME280;68815;48.810;44.482;2023-04-03T07:49:01;100297;;;14.9;32.2
79347;BME280;68815;48.810;44.482;2023-04-03T07:52:03;100299;;;14.7;32.7
79347;BME280;68815;48.810;44.482;2023-04-03T07:55:05;100285;;;14.5;32.3
79347;BME280;68815;48.810;44.482;2023-04-03T07:58:06;100291;;;14.9;32
79347;BME280;68815;48.810;44.482;2023-04-03T08:01:08;100296;;;14.9;31.9
79347;BME280;68815;48.810;44.482;2023-04-03T08:04:09;100304;;;15;32
79347;BME280;68815;48.810;44.482;2023-04-03T08:07:10;100307;;;14.9;31.8
79347;BME280;68815;48.810;44.482;2023-04-03T08:10:12;100309;;;15.4;31.2
79347;BME280;68815;48.810;44.482;2023-04-03T08:13:14;100309;;;15.8;31.7
79347;BME280;68815;48.810;44.482;2023-04-03T08:16:18;100310;;;15.2;31.2
79347;BME280;68815;48.810;44.482;2023-04-03T08:19:21;100304;;;15.6;31.6
79347;BME280;68815;48.810;44.482;2023-04-03T08:22:22;100305;;;15.2;31.6
79347;BME280;68815;48.810;44.482;2023-04-03T08:25:24;100298;;;14.4;33.3
79347;BME280;68815;48.810;44.482;2023-04-03T08:28:25;100308;;;14.8;33.5
79347;BME280;68815;48.810;44.482;2023-04-03T08:31:27;100311;;;14.6;33.4
79347;BME280;68815;48.810;44.482;2023-04-03T08:34:28;100309;;;14.9;33
79347;BME280;68815;48.810;44.482;2023-04-03T08:37:29;100303;;;14.8;32.9
79347;BME280;68815;48.810;44.482;2023-04-03T08:40:31;100307;;;14.9;30.8
79347;BME280;68815;48.810;44.482;2023-04-03T08:43:37;100307;;;15;31
79347;BME280;68815;48.810;44.482;2023-04-03T08:46:52;100308;;;14.9;32.5
79347;BME280;68815;48.810;44.482;2023-04-03T08:49:59;100305;;;15.2;31.3
79347;BME280;68815;48.810;44.482;2023-04-03T08:53:02;100305;;;15.3;31.9
79347;BME280;68815;48.810;44.482;2023-04-03T08:56:07;100303;;;15.1;33.5
79347;BME280;68815;48.810;44.482;2023-04-03T08:59:12;100304;;;15.5;33
79347;BME280;68815;48.810;44.482;2023-04-03T09:02:23;100309;;;15.4;32.7
79347;BME280;68815;48.810;44.482;2023-04-03T09:05:33;100308;;;15.4;32.8
79347;BME280;68815;48.810;44.482;2023-04-03T09:08:40;100303;;;14.9;33.6
79347;BME280;68815;48.810;44.482;2023-04-03T09:11:51;100312;;;15.3;32.9
79347;BME280;68815;48.810;44.482;2023-04-03T09:15:02;100303;;;15.4;33.8
79347;BME280;68815;48.810;44.482;2023-04-03T09:18:11;100307;;;15.2;33.2
79347;BME280;68815;48.810;44.482;2023-04-03T09:21:20;100297;;;15;32.7
79347;BME280;68815;48.810;44.482;2023-04-03T09:24:31;100294;;;15.2;33.2
79347;BME280;68815;48.810;44.482;2023-04-03T09:27:32;100301;;;15.5;33
79347;BME280;68815;48.810;44.482;2023-04-03T09:30:34;100308;;;15.3;31.1
79347;BME280;68815;48.810;44.482;2023-04-03T09:33:36;100299;;;15.4;31.5
79347;BME280;68815;48.810;44.482;2023-04-03T09:36:38;100303;;;15.1;31.5
79347;BME280;68815;48.810;44.482;2023-04-03T09:39:50;100304;;;15.6;32.2
79347;BME280;68815;48.810;44.482;2023-04-03T09:42:53;100298;;;15.3;32.4
79347;BME280;68815;48.810;44.482;2023-04-03T09:45:56;100294;;;15.6;32.6
79347;BME280;68815;48.810;44.482;2023-04-03T09:49:13;100298;;;15.6;32.7
79347;BME280;68815;48.810;44.482;2023-04-03T09:52:18;100295;;;15.8;33.3
79347;BME280;68815;48.810;44.482;2023-04-03T09:55:22;100299;;;15.6;32.5
79347;BME280;68815;48.810;44.482;2023-04-03T09:58:26;100296;;;15.8;32.6
79347;BME280;68815;48.810;44.482;2023-04-03T10:01:30;100296;;;15.4;31.8
79347;BME280;68815;48.810;44.482;2023-04-03T10:04:40;100302;;;16;32.5
79347;BME280;68815;48.810;44.482;2023-04-03T10:07:42;100287;;;16.3;31.9
79347;BME280;68815;48.810;44.482;2023-04-03T10:10:46;100293;;;16.3;31.2
79347;BME280;68815;48.810;44.482;2023-04-03T10:13:52;100293;;;16.3;30.7
79347;BME280;68815;48.810;44.482;2023-04-03T10:16:59;100306;;;15.9;30.6
79347;BME280;68815;48.810;44.482;2023-04-03T10:20:09;100302;;;15.5;31.6
79347;BME280;68815;48.810;44.482;2023-04-03T10:23:23;100305;;;15.6;31.9
79347;BME280;68815;48.810;44.482;2023-04-03T10:26:29;100311;;;15.8;31
79347;BME280;68815;48.810;44.482;2023-04-03T10:29:40;100303;;;15.9;32.3
79347;BME280;68815;48.810;44.482;2023-04-03T10:32:52;100301;;;16;31
79347;BME280;68815;48.810;44.482;2023-04-03T10:36:02;100295;;;15.8;31.7
79347;BME280;68815;48.810;44.482;2023-04-03T10:39:14;100299;;;16.1;30.9
79347;BME280;68815;48.810;44.482;2023-04-03T10:42:25;100288;;;15.7;31.3
79347;BME280;68815;48.810;44.482;2023-04-03T10:45:34;100285;;;15.7;30.4
79347;BME280;68815;48.810;44.482;2023-04-03T10:48:52;100286;;;16.1;30.3
79347;BME280;68815;48.810;44.482;2023-04-03T10:51:59;100282;;;16.4;30.3
79347;BME280;68815;48.810;44.482;2023-04-03T10:55:14;100280;;;16.7;29.8
79347;BME280;68815;48.810;44.482;2023-04-03T10:58:28;100289;;;16.4;29.5
79347;BME280;68815;48.810;44.482;2023-04-03T11:01:33;100287;;;16.3;30.1
79347;BME280;68815;48.810;44.482;2023-04-03T11:04:39;100282;;;16.5;28.6
79347;BME280;68815;48.810;44.482;2023-04-03T11:07:45;100294;;;16.7;28.4
79347;BME280;68815;48.810;44.482;2023-04-03T11:10:50;100293;;;16.9;30.4
79347;BME280;68815;48.810;44.482;2023-04-03T11:13:56;100284;;;16.6;28
79347;BME280;68815;48.810;44.482;2023-04-03T11:17:15;100291;;;16.4;28.4
79347;BME280;68815;48.810;44.482;2023-04-03T11:20:23;100287;;;16.5;26.2
79347;BME280;68815;48.810;44.482;2023-04-03T11:23:30;100300;;;16.5;26.7
79347;BME280;68815;48.810;44.482;2023-04-03T11:26:38;100302;;;16.5;26.7
79347;BME280;68815;48.810;44.482;2023-04-03T11:29:43;100297;;;16.4;26.8
79347;BME280;68815;48.810;44.482;2023-04-03T11:32:56;100310;;;16.1;27.1
79347;BME280;68815;48.810;44.482;2023-04-03T11:36:05;100299;;;16.1;27.5
79347;BME280;68815;48.810;44.482;2023-04-03T11:39:18;100296;;;16.5;28.7
79347;BME280;68815;48.810;44.482;2023-04-03T11:42:28;100299;;;16.7;29.1
79347;BME280;68815;48.810;44.482;2023-04-03T11:45:35;100296;;;16.8;29
79347;BME280;68815;48.810;44.482;2023-04-03T11:48:53;100290;;;16.8;28.3
79347;BME280;68815;48.810;44.482;2023-04-03T11:51:54;100282;;;16.8;29.5
79347;BME280;68815;48.810;44.482;2023-04-03T11:54:56;100287;;;17;29
79347;BME280;68815;48.810;44.482;2023-04-03T11:58:11;100275;;;16.6;28.9
79347;BME280;68815;48.810;44.482;2023-04-03T12:08:24;100279;;;16.5;28.9
79347;BME280;68815;48.810;44.482;2023-04-03T12:11:30;100278;;;16.3;28.7
79347;BME280;68815;48.810;44.482;2023-04-03T12:14:32;100265;;;16.5;29.3
79347;BME280;68815;48.810;44.482;2023-04-03T12:17:33;100273;;;16.8;29.2
79347;BME280;68815;48.810;44.482;2023-04-03T12:20:53;100273;;;16.9;29.3
79347;BME280;68815;48.810;44.482;2023-04-03T12:24:00;100267;;;16.9;29.5
79347;BME280;68815;48.810;44.482;2023-04-03T12:27:07;100264;;;16.8;29.1
79347;BME280;68815;48.810;44.482;2023-04-03T12:30:15;100267;;;16.9;30
79347;BME280;68815;48.810;44.482;2023-04-03T12:33:20;100260;;;17;30.1
79347;BME280;68815;48.810;44.482;2023-04-03T12:36:41;100269;;;17.1;29.6
79347;BME280;68815;48.810;44.482;2023-04-03T12:39:51;100266;;;17;30
79347;BME280;68815;48.810;44.482;2023-04-03T12:43:08;100266;;;16.9;29
79347;BME280;68815;48.810;44.482;2023-04-03T12:46:15;100280;;;17;30
79347;BME280;68815;48.810;44.482;2023-04-03T12:49:29;100278;;;17;29.3
79347;BME280;68815;48.810;44.482;2023-04-03T12:52:38;100277;;;16.7;29.4
79347;BME280;68815;48.810;44.482;2023-04-03T12:55:42;100277;;;16.5;29.6
79347;BME280;68815;48.810;44.482;2023-04-03T12:58:44;100277;;;16.5;29.7
79347;BME280;68815;48.810;44.482;2023-04-03T13:01:54;100285;;;16.6;29.8
79347;BME280;68815;48.810;44.482;2023-04-03T13:04:57;100288;;;16.5;30.4
79347;BME280;68815;48.810;44.482;2023-04-03T13:08:01;100293;;;16.6;30.3
79347;BME280;68815;48.810;44.482;2023-04-03T13:11:06;100280;;;16.7;30.7
79347;BME280;68815;48.810;44.482;2023-04-03T13:14:16;100288;;;16.7;30.1
79347;BME280;68815;48.810;44.482;2023-04-03T13:17:18;100282;;;16.7;30.6
79347;BME280;68815;48.810;44.482;2023-04-03T13:20:24;100295;;;16.8;30.5
79347;BME280;68815;48.810;44.482;2023-04-03T13:23:27;100301;;;16.5;29.8
79347;BME280;68815;48.810;44.482;2023-04-03T13:26:30;100298;;;16.5;31.3
79347;BME280;68815;48.810;44.482;2023-04-03T13:29:35;100303;;;16.5;30.3
79347;BME280;68815;48.810;44.482;2023-04-03T13:32:37;100299;;;16.5;31
79347;BME280;68815;48.810;44.482;2023-04-03T13:35:40;100293;;;16.4;31
79347;BME280;68815;48.810;44.482;2023-04-03T13:38:42;100297;;;16.4;31
79347;BME280;68815;48.810;44.482;2023-04-03T13:41:47;100300;;;16.4;31
79347;BME280;68815;48.810;44.482;2023-04-03T13:44:48;100305;;;16.4;31.4
79347;BME280;68815;48.810;44.482;2023-04-03T13:47:52;100302;;;16.4;31.8
79347;BME280;68815;48.810;44.482;2023-04-03T13:50:57;100311;;;16.4;32.4
79347;BME280;68815;48.810;44.482;2023-04-03T13:54:10;100314;;;16.4;32.6
79347;BME280;68815;48.810;44.482;2023-04-03T13:57:16;100306;;;16.4;32.8
79347;BME280;68815;48.810;44.482;2023-04-03T14:00:27;100307;;;16.4;33.2
79347;BME280;68815;48.810;44.482;2023-04-03T14:03:33;100312;;;16.5;34
79347;BME280;68815;48.810;44.482;2023-04-03T14:06:39;100317;;;16.4;33.5
79347;BME280;68815;48.810;44.482;2023-04-03T14:09:40;100310;;;16.4;34
79347;BME280;68815;48.810;44.482;2023-04-03T14:12:41;100315;;;16.4;34.1
79347;BME280;68815;48.810;44.482;2023-04-03T14:15:44;100314;;;16.4;34.3
79347;BME280;68815;48.810;44.482;2023-04-03T14:18:48;100326;;;16.3;34.5
79347;BME280;68815;48.810;44.482;2023-04-03T14:21:50;100330;;;16.3;34.9
79347;BME280;68815;48.810;44.482;2023-04-03T14:24:52;100328;;;16.3;34.9
79347;BME280;68815;48.810;44.482;2023-04-03T14:27:54;100330;;;16.2;34.9
79347;BME280;68815;48.810;44.482;2023-04-03T14:30:55;100328;;;16.1;35.3
79347;BME280;68815;48.810;44.482;2023-04-03T14:33:57;100321;;;16.1;35.3
79347;BME280;68815;48.810;44.482;2023-04-03T14:36:58;100331;;;16.1;35.7
79347;BME280;68815;48.810;44.482;2023-04-03T14:40:01;100332;;;16.1;35.9
79347;BME280;68815;48.810;44.482;2023-04-03T14:43:05;100330;;;16;36.2
79347;BME280;68815;48.810;44.482;2023-04-03T14:46:12;100336;;;16;36.3
79347;BME280;68815;48.810;44.482;2023-04-03T14:49:19;100336;;;16;36.5
79347;BME280;68815;48.810;44.482;2023-04-03T14:52:25;100333;;;16;36.6
79347;BME280;68815;48.810;44.482;2023-04-03T14:55:27;100336;;;16;36.6
79347;BME280;68815;48.810;44.482;2023-04-03T14:58:28;100339;;;15.9;36.4
79347;BME280;68815;48.810;44.482;2023-04-03T15:01:30;100341;;;15.8;36.7
79347;BME280;68815;48.810;44.482;2023-04-03T15:04:31;100339;;;15.8;36.5
79347;BME280;68815;48.810;44.482;2023-04-03T15:07:35;100344;;;15.7;36.6
79347;BME280;68815;48.810;44.482;2023-04-03T15:10:37;100341;;;15.6;36.6
79347;BME280;68815;48.810;44.482;2023-04-03T15:13:39;100342;;;15.6;36.9
79347;BME280;68815;48.810;44.482;2023-04-03T15:16:41;100342;;;15.6;37.1
79347;BME280;68815;48.810;44.482;2023-04-03T15:19:44;100346;;;15.6;37.2
79347;BME280;68815;48.810;44.482;2023-04-03T15:22:45;100345;;;15.6;37.3
79347;BME280;68815;48.810;44.482;2023-04-03T15:25:48;100348;;;15.6;37.5
79347;BME280;68815;48.810;44.482;2023-04-03T15:28:50;100355;;;15.6;37.6
79347;BME280;68815;48.810;44.482;2023-04-03T15:31:52;100360;;;15.6;37.7
79347;BME280;68815;48.810;44.482;2023-04-03T15:34:54;100366;;;15.6;38.2
79347;BME280;68815;48.810;44.482;2023-04-03T15:37:55;100370;;;15.6;38.1
79347;BME280;68815;48.810;44.482;2023-04-03T15:40:56;100378;;;15.6;39.1
79347;BME280;68815;48.810;44.482;2023-04-03T15:43:58;100384;;;15.5;41
79347;BME280;68815;48.810;44.482;2023-04-03T15:47:00;100389;;;15.4;42.6
79347;BME280;68815;48.810;44.482;2023-04-03T15:50:02;100397;;;15.3;43
79347;BME280;68815;48.810;44.482;2023-04-03T15:53:05;100395;;;15.2;44
79347;BME280;68815;48.810;44.482;2023-04-03T15:56:07;100402;;;15.2;43.9
79347;BME280;68815;48.810;44.482;2023-04-03T15:59:08;100403;;;15.2;44.5
79347;BME280;68815;48.810;44.482;2023-04-03T16:02:12;100409;;;15.1;44.6
79347;BME280;68815;48.810;44.482;2023-04-03T16:05:14;100412;;;15.1;44.6
79347;BME280;68815;48.810;44.482;2023-04-03T16:08:16;100422;;;15;44.5
79347;BME280;68815;48.810;44.482;2023-04-03T16:11:18;100427;;;15.1;44.3
79347;BME280;68815;48.810;44.482;2023-04-03T16:14:19;100432;;;15.2;44.3
79347;BME280;68815;48.810;44.482;2023-04-03T16:17:21;100436;;;15.3;48.2
79347;BME280;68815;48.810;44.482;2023-04-03T16:20:22;100443;;;15.7;43.7
79347;BME280;68815;48.810;44.482;2023-04-03T16:23:23;100441;;;15.5;45.5
79347;BME280;68815;48.810;44.482;2023-04-03T16:26:25;100447;;;15.3;45.5
79347;BME280;68815;48.810;44.482;2023-04-03T16:29:26;100447;;;15.2;44
79347;BME280;68815;48.810;44.482;2023-04-03T16:32:30;100452;;;15.1;44.2
79347;BME280;68815;48.810;44.482;2023-04-03T16:35:32;100450;;;15.1;44.2
79347;BME280;68815;48.810;44.482;2023-04-03T16:38:34;100457;;;15.3;44.6
79347;BME280;68815;48.810;44.482;2023-04-03T16:41:35;100460;;;15.2;44
79347;BME280;68815;48.810;44.482;2023-04-03T16:44:37;100462;;;15;45.1
79347;BME280;68815;48.810;44.482;2023-04-03T16:47:38;100466;;;14.9;44.7
79347;BME280;68815;48.810;44.482;2023-04-03T16:50:40;100463;;;14.9;45
79347;BME280;68815;48.810;44.482;2023-04-03T16:53:42;100465;;;14.8;45.3
79347;BME280;68815;48.810;44.482;2023-04-03T16:56:43;100467;;;14.8;45.7
79347;BME280;68815;48.810;44.482;2023-04-03T16:59:44;100464;;;14.7;46.6
79347;BME280;68815;48.810;44.482;2023-04-03T17:02:46;100462;;;14.7;47
79347;BME280;68815;48.810;44.482;2023-04-03T17:05:48;100463;;;14.6;47.7
79347;BME280;68815;48.810;44.482;2023-04-03T17:08:50;100465;;;14.6;47.9
79347;BME280;68815;48.810;44.482;2023-04-03T17:11:52;100477;;;14.5;47.8
79347;BME280;68815;48.810;44.482;2023-04-03T17:14:53;100474;;;14.5;47.9
79347;BME280;68815;48.810;44.482;2023-04-03T17:17:55;100477;;;14.5;47.8